createdAt,value
2024-03-06T00:00:22.546Z,5.10
2024-03-06T00:02:52.282Z,5.10
2024-03-06T00:05:20.463Z,5.23
2024-03-06T00:07:48.559Z,5.35
2024-03-06T00:10:17.104Z,5.16
2024-03-06T00:12:45.203Z,5.04
2024-03-06T00:15:13.622Z,5.00
2024-03-06T00:17:42.014Z,5.01
2024-03-06T00:20:12.848Z,5.19
2024-03-06T00:22:41.036Z,5.32
2024-03-06T00:25:10.123Z,5.34
2024-03-06T00:27:38.416Z,5.41
2024-03-06T00:30:08.020Z,5.55
2024-03-06T00:32:36.107Z,5.68
2024-03-06T00:35:05.200Z,5.69
2024-03-06T00:37:34.659Z,5.73
2024-03-06T00:40:02.702Z,5.80
2024-03-06T00:42:31.147Z,5.88
2024-03-06T00:44:59.337Z,5.90
2024-03-06T00:47:28.002Z,5.75
2024-03-06T00:49:56.393Z,5.66
2024-03-06T00:52:24.454Z,5.54
2024-03-06T00:54:53.971Z,5.41
2024-03-06T00:57:22.160Z,5.44
2024-03-06T00:59:50.267Z,5.66
2024-03-06T01:02:18.647Z,5.69
2024-03-06T01:04:46.932Z,5.70
2024-03-06T01:07:15.110Z,5.55
2024-03-06T01:09:43.626Z,5.49
2024-03-06T01:12:13.126Z,5.55
2024-03-06T01:14:41.339Z,5.44
2024-03-06T01:17:09.492Z,5.44
2024-03-06T01:19:37.695Z,5.52
2024-03-06T01:22:05.761Z,5.49
2024-03-06T01:24:33.885Z,5.20
2024-03-06T01:27:03.942Z,5.26
2024-03-06T01:29:33.959Z,5.20
2024-03-06T01:32:02.196Z,5.31
2024-03-06T01:34:30.762Z,5.27
2024-03-06T01:36:59.012Z,5.13
2024-03-06T01:39:27.277Z,5.03
2024-03-06T01:41:55.755Z,4.61
2024-03-06T01:44:23.876Z,4.53
2024-03-06T01:46:53.396Z,4.59
2024-03-06T01:49:28.552Z,4.45
2024-03-06T01:52:01.982Z,4.44
2024-03-06T01:54:30.350Z,4.46
2024-03-06T01:57:01.195Z,4.25
2024-03-06T01:59:36.099Z,4.31
2024-03-06T02:02:26.426Z,4.48
2024-03-06T02:04:56.139Z,4.56
2024-03-06T02:07:30.501Z,4.55
2024-03-06T02:09:59.076Z,4.32
2024-03-06T02:12:28.386Z,4.42
2024-03-06T02:14:56.412Z,4.52
2024-03-06T02:17:28.265Z,4.31
2024-03-06T02:19:59.402Z,4.27
2024-03-06T02:22:28.946Z,4.05
2024-03-06T02:24:57.190Z,4.28
2024-03-06T02:27:25.352Z,4.15
2024-03-06T02:29:53.536Z,4.15
2024-03-06T02:32:21.678Z,4.21
2024-03-06T02:34:50.468Z,4.27
2024-03-06T02:37:18.980Z,4.18
2024-03-06T02:39:48.783Z,4.27
2024-03-06T02:42:18.130Z,4.31
2024-03-06T02:44:46.518Z,4.25
2024-03-06T02:47:14.803Z,4.10
2024-03-06T02:49:42.928Z,3.97
2024-03-06T02:52:11.082Z,3.80
2024-03-06T02:54:39.121Z,3.77
2024-03-06T02:57:08.602Z,3.55
2024-03-06T02:59:36.683Z,3.53
2024-03-06T03:02:04.926Z,3.45
2024-03-06T03:04:33.495Z,3.45
2024-03-06T03:07:01.664Z,3.60
2024-03-06T03:09:30.900Z,3.58
2024-03-06T03:12:00.336Z,3.62
2024-03-06T03:14:29.689Z,3.65
2024-03-06T03:16:57.822Z,3.74
2024-03-06T03:19:25.894Z,3.76
2024-03-06T03:21:54.221Z,3.66
2024-03-06T03:24:23.052Z,3.79
2024-03-06T03:26:53.397Z,3.87
2024-03-06T03:29:22.052Z,4.04
2024-03-06T03:31:51.593Z,3.95
2024-03-06T03:34:22.126Z,3.91
2024-03-06T03:36:50.270Z,3.91
2024-03-06T03:39:18.690Z,4.01
2024-03-06T03:41:47.774Z,3.94
2024-03-06T03:44:16.251Z,3.74
2024-03-06T03:46:45.225Z,3.73
2024-03-06T03:49:14.949Z,3.73
2024-03-06T03:51:43.330Z,3.76
2024-03-06T03:54:11.488Z,3.84
2024-03-06T03:56:40.004Z,3.89
2024-03-06T03:59:08.604Z,3.89
2024-03-06T04:01:36.863Z,3.84
2024-03-06T04:04:05.393Z,3.84
2024-03-06T04:06:34.941Z,3.84
2024-03-06T04:09:03.537Z,3.90
2024-03-06T04:11:31.950Z,3.91
2024-03-06T04:14:00.068Z,3.86
2024-03-06T04:16:31.058Z,3.93
2024-03-06T04:18:59.860Z,3.87
2024-03-06T04:21:28.061Z,3.87
2024-03-06T04:23:57.476Z,3.80
2024-03-06T04:26:25.672Z,3.93
2024-03-06T04:28:55.129Z,3.90
2024-03-06T04:31:23.322Z,3.76
2024-03-06T04:33:51.402Z,3.56
2024-03-06T04:36:19.630Z,3.52
2024-03-06T04:38:47.789Z,3.59
2024-03-06T04:41:17.316Z,3.62
2024-03-06T04:43:45.434Z,3.69
2024-03-06T04:46:15.896Z,3.70
2024-03-06T04:48:44.014Z,3.70
2024-03-06T04:51:12.178Z,3.72
2024-03-06T04:53:40.367Z,3.63
2024-03-06T04:56:11.898Z,3.63
2024-03-06T04:58:42.536Z,3.67
2024-03-06T05:01:10.732Z,3.65
2024-03-06T05:59:12.954Z,4.44
2024-03-06T06:01:41.437Z,4.31
2024-03-06T06:04:11.380Z,4.22
2024-03-06T06:06:40.004Z,4.21
2024-03-06T06:09:13.917Z,4.24
2024-03-06T06:11:42.260Z,4.37
2024-03-06T06:14:10.375Z,4.52
2024-03-06T06:16:39.860Z,4.62
2024-03-06T06:19:08.373Z,4.66
2024-03-06T06:21:38.349Z,4.84
2024-03-06T06:24:07.863Z,5.06
2024-03-06T06:26:36.233Z,4.86
2024-03-06T06:29:04.780Z,4.93
2024-03-06T06:31:33.167Z,5.28
2024-03-06T06:34:01.450Z,5.38
2024-03-06T06:36:30.883Z,5.83
2024-03-06T06:39:03.112Z,6.14
2024-03-06T06:41:33.655Z,6.24
2024-03-06T06:44:04.067Z,6.16
2024-03-06T06:46:33.541Z,6.09
2024-03-06T06:49:01.892Z,6.20
2024-03-06T06:51:30.086Z,6.03
2024-03-06T06:54:00.614Z,6.13
2024-03-06T06:56:30.547Z,6.16
2024-03-06T06:58:58.975Z,5.92
2024-03-06T07:01:28.811Z,5.92
2024-03-06T07:03:57.252Z,5.78
2024-03-06T07:06:25.677Z,5.65
2024-03-06T07:08:53.889Z,5.93
2024-03-06T07:11:23.028Z,5.89
2024-03-06T07:13:52.800Z,6.14
2024-03-06T07:16:23.938Z,6.13
2024-03-06T07:18:52.112Z,6.02
2024-03-06T07:21:20.264Z,6.02
2024-03-06T07:23:48.604Z,6.09
2024-03-06T07:26:17.178Z,5.80
2024-03-06T07:28:45.328Z,5.59
2024-03-06T07:31:14.913Z,5.52
2024-03-06T07:33:43.176Z,5.54
2024-03-06T07:36:11.729Z,5.54
2024-03-06T07:38:39.930Z,5.48
2024-03-06T07:41:08.781Z,5.49
2024-03-06T07:43:37.014Z,5.54
2024-03-06T07:46:10.967Z,5.78
2024-03-06T07:48:40.645Z,5.90
2024-03-06T07:51:09.958Z,6.07
2024-03-06T07:53:38.528Z,6.10
2024-03-06T07:56:07.322Z,6.21
2024-03-06T07:58:35.695Z,6.74
2024-03-06T08:01:08.642Z,6.67
2024-03-06T08:03:36.954Z,6.63
2024-03-06T08:06:07.637Z,6.78
2024-03-06T08:08:36.620Z,6.88
2024-03-06T08:11:05.384Z,6.91
2024-03-06T08:13:33.872Z,6.93
2024-03-06T08:16:02.280Z,6.92
2024-03-06T08:18:30.503Z,6.89
2024-03-06T08:20:59.136Z,7.24
2024-03-06T08:23:31.924Z,7.42
2024-03-06T08:26:02.714Z,7.63
2024-03-06T08:28:31.013Z,7.55
2024-03-06T08:30:59.173Z,7.74
2024-03-06T08:33:27.657Z,7.79
2024-03-06T08:35:56.157Z,7.89
2024-03-06T08:38:24.943Z,8.05
2024-03-06T08:40:55.323Z,7.94
2024-03-06T08:43:23.719Z,8.10
2024-03-06T08:45:52.028Z,8.19
2024-03-06T08:48:20.623Z,8.39
2024-03-06T08:50:49.003Z,8.52
2024-03-06T08:53:17.353Z,8.82
2024-03-06T08:55:45.691Z,8.82
2024-03-06T08:58:16.042Z,8.78
2024-03-06T09:00:44.498Z,8.77
2024-03-06T09:03:12.911Z,8.74
2024-03-06T09:05:41.257Z,8.70
2024-03-06T09:08:10.657Z,8.74
2024-03-06T09:10:39.430Z,9.07
2024-03-06T09:13:07.501Z,9.01
2024-03-06T09:15:36.878Z,9.23
2024-03-06T09:18:05.833Z,9.42
2024-03-06T09:20:34.189Z,9.56
2024-03-06T09:23:02.556Z,9.79
2024-03-06T09:25:31.209Z,9.50
2024-03-06T09:28:01.171Z,9.71
2024-03-06T09:30:30.489Z,9.74
2024-03-06T09:33:00.202Z,9.60
2024-03-06T09:35:28.438Z,9.74
2024-03-06T09:37:59.123Z,9.74
2024-03-06T09:40:27.486Z,9.88
2024-03-06T09:42:55.977Z,10.11
2024-03-06T09:45:24.839Z,10.17
2024-03-06T09:47:54.188Z,10.27
2024-03-06T09:50:28.441Z,10.31
2024-03-06T09:52:58.289Z,10.27
2024-03-06T09:55:28.805Z,10.21
2024-03-06T09:57:57.731Z,10.28
2024-03-06T10:00:27.489Z,10.48
2024-03-06T10:03:00.502Z,10.48
2024-03-06T10:05:31.863Z,10.59
2024-03-06T10:08:01.497Z,10.59
2024-03-06T10:10:29.929Z,10.69
2024-03-06T10:13:03.678Z,10.97
2024-03-06T10:15:32.332Z,11.08
2024-03-06T10:18:13.352Z,11.34
2024-03-06T10:20:46.290Z,11.38
2024-03-06T10:23:19.633Z,11.42
2024-03-06T10:25:54.581Z,11.41
2024-03-06T10:28:26.899Z,11.39
2024-03-06T10:31:06.054Z,11.50
2024-03-06T10:33:34.851Z,11.65
2024-03-06T10:36:05.460Z,11.73
2024-03-06T10:38:39.060Z,11.93
2024-03-06T10:41:15.648Z,12.07
2024-03-06T10:43:46.905Z,12.19
2024-03-06T10:46:16.651Z,12.33
2024-03-06T10:48:46.067Z,12.41
2024-03-06T10:51:17.117Z,12.23
2024-03-06T10:53:47.463Z,12.03
2024-03-06T10:56:16.250Z,12.03
2024-03-06T10:58:45.144Z,12.16
2024-03-06T11:01:13.949Z,12.16
2024-03-06T11:03:43.036Z,12.40
2024-03-06T11:06:11.373Z,12.60
2024-03-06T11:08:41.345Z,12.69
2024-03-06T11:11:23.352Z,12.75
2024-03-06T11:13:51.734Z,12.75
2024-03-06T11:16:19.825Z,12.84
2024-03-06T11:18:49.373Z,12.71
2024-03-06T11:21:34.364Z,12.62
2024-03-06T11:24:23.473Z,12.85
2024-03-06T11:26:57.722Z,13.12
2024-03-06T11:29:28.224Z,13.15
2024-03-06T11:32:11.705Z,13.18
2024-03-06T11:34:40.770Z,13.43
2024-03-06T11:37:12.980Z,13.60
2024-03-06T11:39:45.943Z,13.39
2024-03-06T11:42:16.350Z,13.22
2024-03-06T11:44:57.857Z,13.16
2024-03-06T11:47:26.993Z,12.99
2024-03-06T11:49:56.761Z,13.03
2024-03-06T11:52:25.000Z,13.18
2024-03-06T11:54:55.672Z,13.36
2024-03-06T11:57:28.206Z,13.32
2024-03-06T11:59:56.879Z,13.37
2024-03-06T12:02:25.391Z,13.39
2024-03-06T12:04:55.025Z,13.43
2024-03-06T12:07:23.574Z,13.51
2024-03-06T12:09:52.529Z,13.63
2024-03-06T12:12:22.339Z,13.71
2024-03-06T12:14:59.382Z,13.81
2024-03-06T12:17:27.908Z,13.98
2024-03-06T12:19:58.228Z,13.84
2024-03-06T12:22:28.184Z,13.87
2024-03-06T12:25:01.212Z,13.74
2024-03-06T12:27:31.001Z,13.75
2024-03-06T12:29:59.301Z,13.70
2024-03-06T12:32:31.311Z,13.67
2024-03-06T12:35:01.837Z,13.84
2024-03-06T12:37:35.165Z,13.81
2024-03-06T12:40:05.841Z,13.85
2024-03-06T12:42:35.594Z,13.88
2024-03-06T12:45:04.773Z,13.57
2024-03-06T12:47:33.359Z,13.32
2024-03-06T12:50:01.791Z,13.18
2024-03-06T12:52:29.959Z,12.99
2024-03-06T12:54:58.203Z,12.69
2024-03-06T12:57:26.882Z,12.52
2024-03-06T12:59:56.558Z,12.44
2024-03-06T13:02:24.999Z,12.45
2024-03-06T13:04:53.550Z,12.41
2024-03-06T13:07:22.110Z,12.44
2024-03-06T13:09:50.422Z,12.42
2024-03-06T13:12:18.641Z,12.48
2024-03-06T13:14:46.952Z,12.50
2024-03-06T13:17:17.385Z,12.44
2024-03-06T13:19:45.613Z,12.52
2024-03-06T13:22:14.056Z,12.57
2024-03-06T13:24:44.180Z,12.79
2024-03-06T13:27:13.921Z,12.84
2024-03-06T13:29:42.632Z,12.79
2024-03-06T13:32:11.813Z,12.64
2024-03-06T13:34:41.566Z,12.61
2024-03-06T13:37:11.742Z,12.72
2024-03-06T13:39:41.260Z,12.64
2024-03-06T13:42:10.630Z,12.75
2024-03-06T13:44:39.024Z,12.81
2024-03-06T13:47:09.246Z,12.87
2024-03-06T13:49:39.639Z,12.89
2024-03-06T13:52:11.489Z,12.87
2024-03-06T13:54:41.469Z,12.89
2024-03-06T13:57:10.312Z,13.02
2024-03-06T13:59:39.148Z,12.96
2024-03-06T14:02:08.764Z,12.99
2024-03-06T14:04:37.444Z,13.05
2024-03-06T14:07:06.662Z,13.05
2024-03-06T14:09:36.330Z,12.79
2024-03-06T14:12:04.822Z,12.77
2024-03-06T14:14:33.020Z,12.96
2024-03-06T14:17:01.489Z,12.87
2024-03-06T14:19:30.083Z,13.02
2024-03-06T14:22:02.056Z,12.96
2024-03-06T14:24:32.653Z,12.69
2024-03-06T14:27:02.230Z,12.64
2024-03-06T14:29:30.698Z,12.85
2024-03-06T14:31:59.476Z,12.77
2024-03-06T14:34:27.871Z,12.72
2024-03-06T14:36:56.373Z,12.71
2024-03-06T14:39:26.777Z,12.64
2024-03-06T14:41:55.358Z,12.65
2024-03-06T14:44:25.045Z,12.58
2024-03-06T14:46:53.670Z,12.52
2024-03-06T14:49:21.939Z,12.55
2024-03-06T14:51:50.155Z,12.60
2024-03-06T14:54:18.462Z,12.67
2024-03-06T14:56:46.901Z,12.82
2024-03-06T14:59:15.350Z,12.69
2024-03-06T15:01:45.600Z,12.65
2024-03-06T15:04:14.032Z,12.78
2024-03-06T15:06:42.662Z,12.75
2024-03-06T15:09:13.050Z,12.60
2024-03-06T15:11:41.843Z,12.41
2024-03-06T15:14:10.359Z,12.30
2024-03-06T15:16:39.869Z,12.13
2024-03-06T15:19:09.671Z,11.89
2024-03-06T15:21:37.908Z,11.76
2024-03-06T15:24:06.978Z,11.61
2024-03-06T15:26:36.924Z,11.42
2024-03-06T15:29:07.893Z,11.31
2024-03-06T15:31:36.162Z,11.20
2024-03-06T15:34:04.244Z,11.25
2024-03-06T15:36:33.776Z,11.11
2024-03-06T15:39:02.131Z,11.14
2024-03-06T15:41:30.377Z,11.08
2024-03-06T15:43:59.180Z,11.07
2024-03-06T15:46:27.868Z,11.00
2024-03-06T15:48:56.400Z,10.97
2024-03-06T15:51:24.665Z,11.06
2024-03-06T15:53:54.926Z,10.79
2024-03-06T15:56:23.103Z,10.81
2024-03-06T15:58:51.300Z,10.66
2024-03-06T16:01:19.656Z,10.76
2024-03-06T16:03:47.852Z,10.57
2024-03-06T16:06:19.322Z,10.42
2024-03-06T16:08:48.975Z,10.34
2024-03-06T16:11:18.765Z,10.57
2024-03-06T16:13:47.138Z,10.70
2024-03-06T16:16:17.654Z,10.67
2024-03-06T16:18:46.284Z,10.69
2024-03-06T16:21:14.338Z,10.73
2024-03-06T16:23:42.835Z,10.34
2024-03-06T16:26:11.173Z,10.11
2024-03-06T16:28:41.070Z,10.15
2024-03-06T16:31:09.648Z,9.90
2024-03-06T16:33:38.220Z,9.90
2024-03-06T16:36:09.789Z,9.95
2024-03-06T16:38:38.481Z,9.93
2024-03-06T16:41:10.325Z,9.93
2024-03-06T16:43:38.549Z,9.95
2024-03-06T16:46:08.226Z,10.00
2024-03-06T16:48:36.587Z,9.86
2024-03-06T16:51:05.359Z,9.94
2024-03-06T16:53:33.790Z,10.12
2024-03-06T16:56:02.162Z,10.37
2024-03-06T16:58:30.577Z,10.45
2024-03-06T17:00:58.874Z,10.46
2024-03-06T17:03:28.657Z,10.53
2024-03-06T17:05:56.941Z,10.48
2024-03-06T17:08:26.259Z,10.37
2024-03-06T17:10:54.567Z,10.39
2024-03-06T17:13:23.484Z,10.25
2024-03-06T17:15:52.366Z,9.91
2024-03-06T17:18:24.186Z,10.05
2024-03-06T17:20:54.516Z,9.83
2024-03-06T17:23:23.749Z,9.57
2024-03-06T17:25:53.498Z,9.57
2024-03-06T17:28:21.884Z,9.46
2024-03-06T17:30:50.367Z,9.43
2024-03-06T17:33:19.372Z,9.56
2024-03-06T17:35:48.459Z,9.47
2024-03-06T17:38:18.623Z,9.49
2024-03-06T17:40:47.498Z,9.61
2024-03-06T17:43:16.253Z,9.56
2024-03-06T17:45:44.490Z,9.57
2024-03-06T17:48:13.494Z,9.56
2024-03-06T17:50:44.288Z,9.74
2024-03-06T17:53:13.574Z,9.83
2024-03-06T17:55:43.572Z,9.61
2024-03-06T17:58:11.794Z,9.76
2024-03-06T18:00:43.054Z,9.61
2024-03-06T18:03:16.711Z,9.26
2024-03-06T18:05:45.421Z,9.33
2024-03-06T18:08:13.800Z,9.18
2024-03-06T18:10:43.459Z,9.14
2024-03-06T18:13:11.731Z,9.25
2024-03-06T18:15:43.020Z,9.04
2024-03-06T18:18:11.464Z,9.02
2024-03-06T18:20:40.000Z,9.08
2024-03-06T18:23:08.347Z,9.14
2024-03-06T18:25:36.407Z,9.38
2024-03-06T18:28:06.389Z,9.39
2024-03-06T18:30:35.077Z,9.28
2024-03-06T18:33:03.712Z,9.30
2024-03-06T18:35:31.988Z,9.33
2024-03-06T18:38:02.711Z,9.33
2024-03-06T18:40:31.364Z,9.04
2024-03-06T18:43:00.249Z,9.14
2024-03-06T18:45:31.277Z,9.04
2024-03-06T18:48:01.711Z,9.04
2024-03-06T18:50:33.621Z,9.05
2024-03-06T18:53:06.585Z,9.11
2024-03-06T18:55:35.536Z,8.88
2024-03-06T18:58:04.763Z,8.84
2024-03-06T19:00:35.151Z,8.88
2024-03-06T19:03:03.496Z,8.73
2024-03-06T19:05:31.897Z,8.43
2024-03-06T19:08:00.633Z,8.17
2024-03-06T19:10:28.818Z,8.16
2024-03-06T19:12:57.274Z,8.15
2024-03-06T19:15:25.744Z,8.10
2024-03-06T19:17:55.877Z,8.02
2024-03-06T19:20:24.543Z,8.02
2024-03-06T19:22:52.610Z,7.96
2024-03-06T19:25:21.378Z,7.84
2024-03-06T19:27:49.621Z,7.85
2024-03-06T19:30:17.814Z,7.85
2024-03-06T19:32:54.702Z,7.86
2024-03-06T19:35:26.884Z,7.98
2024-03-06T19:37:55.440Z,8.25
2024-03-06T19:40:23.864Z,8.23
2024-03-06T19:42:52.181Z,8.25
2024-03-06T19:45:21.160Z,8.19
2024-03-06T19:47:49.621Z,8.16
2024-03-06T19:50:18.387Z,8.13
2024-03-06T19:52:50.925Z,8.22
2024-03-06T19:55:21.181Z,8.19
2024-03-06T19:57:49.568Z,8.21
2024-03-06T20:00:20.845Z,8.26
2024-03-06T20:02:49.219Z,8.10
2024-03-06T20:05:18.241Z,8.05
2024-03-06T20:07:48.005Z,7.99
2024-03-06T20:10:16.612Z,8.05
2024-03-06T20:12:44.866Z,8.06
2024-03-06T20:15:13.602Z,8.02
2024-03-06T20:17:42.284Z,7.95
2024-03-06T20:20:13.189Z,7.86
2024-03-06T20:22:41.842Z,7.78
2024-03-06T20:25:12.850Z,7.71
2024-03-06T20:27:42.075Z,7.74
2024-03-06T20:30:11.857Z,7.61
2024-03-06T20:32:40.277Z,7.60
2024-03-06T20:35:10.032Z,7.55
2024-03-06T20:37:38.477Z,7.58
2024-03-06T20:40:07.885Z,7.55
2024-03-06T20:42:37.363Z,7.54
2024-03-06T20:45:11.747Z,7.55
2024-03-06T20:47:41.928Z,7.57
2024-03-06T20:50:11.865Z,7.54
2024-03-06T20:52:42.075Z,7.58
2024-03-06T20:55:11.113Z,7.67
2024-03-06T20:57:40.550Z,7.63
2024-03-06T21:00:13.964Z,7.63
2024-03-06T21:02:42.545Z,7.71
2024-03-06T21:05:11.516Z,7.77
2024-03-06T21:07:42.222Z,7.88
2024-03-06T21:10:11.530Z,7.88
2024-03-06T21:12:40.996Z,7.96
2024-03-06T21:15:10.660Z,7.94
2024-03-06T21:17:38.812Z,7.86
2024-03-06T21:20:12.665Z,7.88
2024-03-06T21:22:41.779Z,7.94
2024-03-06T21:25:11.714Z,7.95
2024-03-06T21:27:42.030Z,7.96
2024-03-06T21:30:12.637Z,7.95
2024-03-06T21:32:41.457Z,7.86
2024-03-06T21:35:11.276Z,7.92
2024-03-06T21:37:39.723Z,7.92
2024-03-06T21:40:10.650Z,7.86
2024-03-06T21:42:38.961Z,7.85
2024-03-06T21:45:10.833Z,7.84
2024-03-06T21:47:39.471Z,7.84
2024-03-06T21:50:08.498Z,7.85
2024-03-06T21:52:36.960Z,7.85
2024-03-06T21:55:05.318Z,7.98
2024-03-06T21:57:33.510Z,7.96
2024-03-06T22:00:01.626Z,7.99
2024-03-06T22:02:31.463Z,7.98
2024-03-06T22:04:59.810Z,7.96
2024-03-06T22:07:27.873Z,7.86
2024-03-06T22:09:56.270Z,7.91
2024-03-06T22:12:25.999Z,7.85
2024-03-06T22:14:55.727Z,7.86
2024-03-06T22:17:24.438Z,7.84
2024-03-06T22:19:54.161Z,7.84
2024-03-06T22:22:24.366Z,7.92
2024-03-06T22:24:53.514Z,7.89
2024-03-06T22:27:21.683Z,7.78
2024-03-06T22:29:49.809Z,7.78
2024-03-06T22:32:18.057Z,7.78
2024-03-06T22:34:46.412Z,7.60
2024-03-06T22:37:16.058Z,7.67
2024-03-06T22:39:44.310Z,7.60
2024-03-06T22:42:12.787Z,7.64
2024-03-06T22:44:41.326Z,7.58
2024-03-06T22:47:09.738Z,7.67
2024-03-06T22:49:38.022Z,7.63
2024-03-06T22:52:06.919Z,7.58
2024-03-06T22:54:38.849Z,7.64
2024-03-06T22:57:07.476Z,7.61
2024-03-06T22:59:35.834Z,7.55
2024-03-06T23:02:04.354Z,7.57
2024-03-06T23:04:33.516Z,7.61
2024-03-06T23:07:01.767Z,7.57
2024-03-06T23:09:29.803Z,7.64
2024-03-06T23:11:59.284Z,7.55
2024-03-06T23:14:28.177Z,7.60
2024-03-06T23:16:56.515Z,7.65
2024-03-06T23:19:24.901Z,7.68
2024-03-06T23:21:52.957Z,7.71
2024-03-06T23:24:21.015Z,7.65
2024-03-06T23:26:49.182Z,7.61
2024-03-06T23:29:18.922Z,7.57
2024-03-06T23:31:47.120Z,7.50
2024-03-06T23:34:15.149Z,7.36
2024-03-06T23:36:43.303Z,7.42
2024-03-06T23:39:11.433Z,7.36
2024-03-06T23:41:39.715Z,7.33
2024-03-06T23:44:07.836Z,7.36
2024-03-06T23:46:37.385Z,7.33
2024-03-06T23:49:05.796Z,7.36
2024-03-06T23:51:34.637Z,7.38
2024-03-06T23:54:03.350Z,7.46
2024-03-06T23:56:32.774Z,7.42
2024-03-06T23:59:01.016Z,7.36
